createdAt,value
2022-11-20T00:00:58.685Z,87.25
2022-11-20T00:03:30.502Z,87.32
2022-11-20T00:06:02.214Z,88.09
2022-11-20T00:08:30.410Z,87.92
2022-11-20T00:10:58.408Z,87.69
2022-11-20T00:13:26.341Z,88.12
2022-11-20T00:15:59.534Z,88.68
2022-11-20T00:18:29.410Z,88.67
2022-11-20T00:21:03.143Z,88.96
2022-11-20T00:23:31.672Z,89.12
2022-11-20T00:26:04.466Z,88.75
2022-11-20T00:28:32.797Z,89.40
2022-11-20T00:31:05.203Z,89.72
2022-11-20T00:33:35.145Z,89.17
2022-11-20T00:36:04.792Z,88.93
2022-11-20T00:38:32.890Z,88.73
2022-11-20T00:41:02.310Z,89.19
2022-11-20T00:43:30.763Z,89.27
2022-11-20T00:45:59.902Z,89.23
2022-11-20T00:48:28.879Z,89.10
2022-11-20T00:50:59.254Z,88.79
2022-11-20T00:53:27.936Z,89.40
2022-11-20T00:55:57.416Z,88.81
2022-11-20T00:58:26.633Z,89.47
2022-11-20T01:00:54.677Z,89.68
2022-11-20T01:03:26.781Z,89.50
2022-11-20T01:05:54.981Z,89.17
2022-11-20T01:08:24.382Z,89.90
2022-11-20T01:10:52.258Z,89.06
2022-11-20T01:13:38.178Z,89.47
2022-11-20T01:16:07.902Z,89.01
2022-11-20T01:18:36.414Z,89.49
2022-11-20T01:21:05.666Z,89.38
2022-11-20T01:23:36.069Z,89.36
2022-11-20T01:26:05.254Z,89.29
2022-11-20T01:28:33.456Z,88.95
2022-11-20T01:31:01.914Z,89.37
2022-11-20T01:33:29.944Z,89.23
2022-11-20T01:36:06.331Z,89.98
2022-11-20T01:38:35.622Z,89.78
2022-11-20T01:41:04.534Z,90.26
2022-11-20T01:43:32.262Z,89.60
2022-11-20T01:46:21.455Z,89.80
2022-11-20T01:48:55.453Z,89.92
2022-11-20T01:51:31.256Z,89.41
2022-11-20T01:54:03.490Z,90.00
2022-11-20T01:56:35.578Z,90.15
2022-11-20T01:59:06.368Z,90.51
2022-11-20T02:01:34.752Z,90.14
2022-11-20T02:04:03.575Z,89.90
2022-11-20T02:06:37.274Z,90.50
2022-11-20T02:09:10.147Z,90.10
2022-11-20T02:11:38.073Z,90.42
2022-11-20T02:14:05.325Z,90.19
2022-11-20T02:16:37.294Z,90.13
2022-11-20T02:19:09.558Z,90.29
2022-11-20T02:21:41.701Z,90.17
2022-11-20T02:24:16.262Z,90.69
2022-11-20T02:26:51.706Z,89.72
2022-11-20T02:29:25.347Z,90.06
2022-11-20T02:31:56.020Z,90.69
2022-11-20T02:34:24.061Z,90.47
2022-11-20T02:36:54.212Z,90.69
2022-11-20T02:39:26.892Z,90.78
2022-11-20T02:41:55.882Z,90.36
2022-11-20T02:44:23.835Z,90.30
2022-11-20T02:46:51.753Z,90.31
2022-11-20T02:49:20.134Z,90.08
2022-11-20T02:51:48.306Z,90.38
2022-11-20T02:54:16.312Z,89.90
2022-11-20T02:56:45.634Z,89.73
2022-11-20T02:59:13.603Z,89.55
2022-11-20T03:01:41.655Z,89.31
2022-11-20T03:04:10.426Z,90.09
2022-11-20T03:06:38.500Z,90.12
2022-11-20T03:09:06.506Z,90.14
2022-11-20T03:11:34.522Z,90.37
2022-11-20T03:14:05.772Z,90.37
2022-11-20T03:16:34.415Z,90.19
2022-11-20T03:19:02.958Z,89.78
2022-11-20T03:21:30.943Z,90.14
2022-11-20T03:23:58.830Z,90.88
2022-11-20T03:26:28.334Z,90.27
2022-11-20T03:28:58.017Z,90.07
2022-11-20T03:31:28.660Z,90.49
2022-11-20T03:33:58.126Z,90.78
2022-11-20T03:36:26.203Z,90.29
2022-11-20T03:38:55.837Z,90.25
2022-11-20T03:41:25.838Z,90.01
2022-11-20T03:43:55.321Z,89.50
2022-11-20T03:46:23.493Z,90.04
2022-11-20T03:48:53.272Z,89.80
2022-11-20T03:51:22.923Z,90.22
2022-11-20T03:53:52.870Z,90.28
2022-11-20T03:56:25.706Z,90.14
2022-11-20T03:58:53.641Z,89.87
2022-11-20T04:01:24.056Z,90.61
2022-11-20T04:03:54.415Z,90.99
2022-11-20T04:06:24.503Z,90.48
2022-11-20T04:08:54.126Z,91.21
2022-11-20T04:11:24.472Z,90.75
2022-11-20T04:13:54.905Z,91.15
2022-11-20T04:16:23.910Z,91.05
2022-11-20T04:18:55.935Z,91.03
2022-11-20T04:21:24.920Z,91.47
2022-11-20T04:23:53.763Z,91.42
2022-11-20T04:26:22.748Z,90.96
2022-11-20T04:28:50.770Z,90.90
2022-11-20T04:31:20.912Z,90.93
2022-11-20T04:33:49.003Z,90.75
2022-11-20T04:36:21.820Z,91.13
2022-11-20T04:38:56.861Z,91.26
2022-11-20T04:41:28.050Z,90.64
2022-11-20T04:44:02.755Z,90.70
2022-11-20T04:46:32.569Z,91.70
2022-11-20T04:49:01.173Z,91.90
2022-11-20T04:51:30.847Z,90.63
2022-11-20T04:53:58.821Z,91.40
2022-11-20T04:56:26.970Z,90.87
2022-11-20T04:58:54.997Z,91.13
2022-11-20T05:01:25.507Z,90.25
2022-11-20T05:03:54.212Z,91.37
2022-11-20T05:06:24.530Z,91.13
2022-11-20T05:08:54.239Z,91.36
2022-11-20T05:11:23.577Z,90.98
2022-11-20T05:13:52.932Z,91.28
2022-11-20T05:16:23.191Z,90.97
2022-11-20T05:18:52.353Z,90.52
2022-11-20T05:21:20.511Z,90.65
2022-11-20T05:23:48.949Z,90.08
2022-11-20T05:26:20.145Z,90.96
2022-11-20T05:28:48.302Z,89.50
2022-11-20T05:31:22.026Z,89.98
2022-11-20T05:33:53.807Z,90.23
2022-11-20T05:36:21.795Z,89.96
2022-11-20T05:38:51.062Z,89.52
2022-11-20T05:41:22.242Z,90.12
2022-11-20T05:43:51.499Z,89.32
2022-11-20T05:46:27.682Z,89.45
2022-11-20T05:48:57.483Z,89.53
2022-11-20T05:51:26.070Z,89.67
2022-11-20T05:53:53.963Z,89.89
2022-11-20T05:56:24.292Z,90.01
2022-11-20T05:58:52.282Z,89.50
2022-11-20T06:01:22.533Z,89.81
2022-11-20T06:03:51.835Z,89.58
2022-11-20T06:06:21.144Z,89.65
2022-11-20T06:08:49.368Z,89.53
2022-11-20T06:11:18.016Z,89.63
2022-11-20T06:13:48.026Z,89.58
2022-11-20T06:16:19.495Z,90.04
2022-11-20T06:18:47.611Z,90.00
2022-11-20T06:21:17.999Z,89.33
2022-11-20T06:23:46.585Z,89.50
2022-11-20T06:26:16.568Z,90.04
2022-11-20T06:28:44.813Z,89.80
2022-11-20T06:31:15.539Z,89.86
2022-11-20T06:33:44.392Z,89.49
2022-11-20T06:36:13.931Z,89.70
2022-11-20T06:38:42.672Z,89.02
2022-11-20T06:41:13.842Z,89.42
2022-11-20T06:43:42.032Z,89.40
2022-11-20T06:46:11.821Z,89.27
2022-11-20T06:48:41.782Z,88.91
2022-11-20T06:51:10.278Z,88.79
2022-11-20T06:53:39.487Z,88.96
2022-11-20T06:56:08.232Z,88.47
2022-11-20T06:58:37.508Z,88.99
2022-11-20T07:01:07.553Z,88.81
2022-11-20T07:03:35.749Z,88.57
2022-11-20T07:06:06.273Z,88.66
2022-11-20T07:08:34.805Z,88.88
2022-11-20T07:11:05.070Z,88.97
2022-11-20T07:13:33.333Z,89.30
2022-11-20T07:16:03.035Z,88.66
2022-11-20T07:18:31.542Z,89.20
2022-11-20T07:21:02.546Z,88.89
2022-11-20T07:23:32.344Z,88.89
2022-11-20T07:26:05.034Z,88.84
2022-11-20T07:28:33.441Z,88.15
2022-11-20T07:31:02.287Z,88.79
2022-11-20T07:33:31.517Z,88.42
2022-11-20T07:36:00.980Z,88.32
2022-11-20T07:38:29.442Z,88.64
2022-11-20T07:41:02.474Z,88.77
2022-11-20T07:43:30.973Z,88.83
2022-11-20T07:45:59.832Z,88.83
2022-11-20T07:48:28.336Z,89.02
2022-11-20T07:50:56.905Z,89.45
2022-11-20T07:53:26.000Z,89.40
2022-11-20T07:55:54.527Z,89.70
2022-11-20T07:58:24.223Z,89.10
2022-11-20T08:00:52.664Z,89.12
2022-11-20T08:03:24.909Z,89.12
2022-11-20T08:05:53.854Z,89.87
2022-11-20T08:08:22.193Z,89.91
2022-11-20T08:10:50.289Z,89.74
2022-11-20T08:13:35.842Z,89.68
2022-11-20T08:16:05.740Z,89.71
2022-11-20T08:18:33.800Z,90.55
2022-11-20T08:21:05.696Z,90.43
2022-11-20T08:23:34.191Z,89.94
2022-11-20T08:26:02.199Z,90.11
2022-11-20T08:28:30.290Z,90.29
2022-11-20T08:31:01.034Z,90.49
2022-11-20T08:33:30.760Z,90.50
2022-11-20T08:36:01.471Z,90.26
2022-11-20T08:38:29.481Z,90.12
2022-11-20T08:41:18.855Z,89.96
2022-11-20T08:43:46.878Z,90.05
2022-11-20T08:46:15.056Z,89.83
2022-11-20T08:48:45.022Z,89.35
2022-11-20T08:51:14.312Z,89.73
2022-11-20T08:53:42.894Z,90.41
2022-11-20T08:56:12.037Z,89.92
2022-11-20T08:59:09.801Z,88.87
2022-11-20T09:01:28.495Z,87.25
2022-11-20T09:03:58.955Z,88.24
2022-11-20T09:06:27.357Z,88.50
2022-11-20T09:08:55.372Z,88.46
2022-11-20T09:11:23.462Z,88.59
2022-11-20T09:13:51.714Z,87.47
2022-11-20T09:16:20.239Z,87.02
2022-11-20T09:18:54.103Z,86.66
2022-11-20T09:21:38.492Z,87.07
2022-11-20T09:24:07.590Z,86.90
2022-11-20T09:26:35.533Z,87.79
2022-11-20T09:29:03.608Z,86.14
2022-11-20T09:31:31.547Z,87.18
2022-11-20T09:33:59.637Z,87.32
2022-11-20T09:36:27.767Z,86.76
2022-11-20T09:38:57.327Z,87.89
2022-11-20T09:41:44.858Z,86.65
2022-11-20T09:44:28.624Z,87.53
2022-11-20T09:47:03.780Z,86.97
2022-11-20T09:49:42.732Z,87.26
2022-11-20T09:52:24.376Z,87.43
2022-11-20T09:54:56.433Z,87.51
2022-11-20T09:57:31.215Z,87.75
2022-11-20T10:00:03.467Z,87.89
2022-11-20T10:02:44.861Z,87.53
2022-11-20T10:05:20.255Z,88.37
2022-11-20T10:07:56.299Z,88.90
2022-11-20T10:10:38.589Z,88.99
2022-11-20T10:13:22.514Z,89.47
2022-11-20T10:16:03.474Z,89.97
2022-11-20T10:18:46.264Z,90.48
2022-11-20T10:21:25.532Z,90.74
2022-11-20T10:24:11.840Z,90.07
2022-11-20T10:26:50.277Z,91.05
2022-11-20T10:29:21.014Z,90.92
2022-11-20T10:31:53.242Z,90.38
2022-11-20T10:34:26.364Z,90.35
2022-11-20T10:36:58.155Z,90.50
2022-11-20T10:39:33.457Z,91.07
2022-11-20T10:42:03.058Z,91.24
2022-11-20T10:44:55.120Z,91.81
2022-11-20T10:47:24.729Z,91.56
2022-11-20T10:49:55.239Z,91.49
2022-11-20T10:52:31.356Z,91.38
2022-11-20T10:55:08.338Z,90.87
2022-11-20T10:57:54.134Z,90.35
2022-11-20T11:00:22.172Z,90.83
2022-11-20T11:02:51.830Z,90.92
2022-11-20T11:05:38.321Z,90.40
2022-11-20T11:08:12.819Z,89.83
2022-11-20T11:10:48.257Z,90.43
2022-11-20T11:13:25.646Z,90.63
2022-11-20T11:15:54.044Z,90.50
2022-11-20T11:18:26.699Z,90.20
2022-11-20T11:20:56.318Z,87.68
2022-11-20T11:23:36.095Z,87.64
2022-11-20T11:26:06.071Z,88.12
2022-11-20T11:28:36.893Z,86.53
2022-11-20T11:31:04.785Z,84.61
2022-11-20T11:33:35.575Z,86.13
2022-11-20T11:36:07.065Z,85.74
2022-11-20T11:38:38.869Z,86.40
2022-11-20T11:41:09.536Z,85.48
2022-11-20T11:43:57.468Z,84.63
2022-11-20T11:46:32.786Z,85.25
2022-11-20T11:49:02.766Z,84.28
2022-11-20T11:51:37.477Z,84.64
2022-11-20T11:54:15.903Z,83.33
2022-11-20T11:56:45.060Z,81.85
2022-11-20T11:59:25.707Z,79.81
2022-11-20T12:01:57.748Z,79.93
2022-11-20T12:04:42.456Z,78.81
2022-11-20T12:07:44.346Z,79.92
2022-11-20T12:10:05.003Z,78.32
2022-11-20T12:12:39.138Z,75.60
2022-11-20T12:15:13.828Z,74.83
2022-11-20T12:17:42.161Z,76.53
2022-11-20T12:20:16.094Z,75.50
2022-11-20T12:22:53.836Z,76.27
2022-11-20T12:25:26.469Z,74.91
2022-11-20T12:28:12.820Z,75.41
2022-11-20T12:30:51.251Z,74.78
2022-11-20T12:33:40.444Z,74.14
2022-11-20T12:36:18.131Z,73.63
2022-11-20T12:39:04.765Z,74.82
2022-11-20T12:42:06.022Z,75.26
2022-11-20T12:45:11.594Z,75.05
2022-11-20T12:47:56.765Z,74.13
2022-11-20T12:50:32.536Z,73.10
2022-11-20T12:53:07.438Z,72.60
2022-11-20T12:55:43.143Z,72.32
2022-11-20T12:58:18.548Z,71.76
2022-11-20T13:01:02.882Z,72.20
2022-11-20T13:03:41.559Z,74.63
2022-11-20T13:06:16.457Z,74.49
2022-11-20T13:08:49.548Z,73.16
2022-11-20T13:11:24.731Z,73.09
2022-11-20T13:14:13.437Z,73.33
2022-11-20T13:16:50.027Z,72.18
2022-11-20T13:19:20.390Z,72.58
2022-11-20T13:21:51.502Z,73.85
2022-11-20T13:24:27.239Z,73.35
2022-11-20T13:27:07.002Z,74.08
2022-11-20T13:29:36.240Z,74.38
2022-11-20T13:32:08.267Z,72.49
2022-11-20T13:34:38.107Z,74.50
2022-11-20T13:37:06.143Z,72.72
2022-11-20T13:39:36.114Z,73.00
2022-11-20T13:42:20.772Z,74.83
2022-11-20T13:44:52.921Z,74.96
2022-11-20T13:47:23.975Z,74.66
2022-11-20T13:49:54.223Z,75.27
2022-11-20T13:52:44.500Z,75.95
2022-11-20T13:55:23.453Z,75.18
2022-11-20T13:58:08.224Z,75.62
2022-11-20T14:00:52.314Z,75.53
2022-11-20T14:03:44.013Z,75.17
2022-11-20T14:06:24.589Z,74.91
2022-11-20T14:08:52.622Z,74.81
2022-11-20T14:11:22.629Z,75.20
2022-11-20T14:13:57.159Z,75.89
2022-11-20T14:16:26.312Z,76.08
2022-11-20T14:18:55.695Z,76.10
2022-11-20T14:21:26.890Z,76.59
2022-11-20T14:23:56.654Z,76.18
2022-11-20T14:26:24.704Z,77.07
2022-11-20T14:28:53.385Z,77.00
2022-11-20T14:31:26.995Z,76.87
2022-11-20T14:33:56.029Z,78.24
2022-11-20T14:36:27.424Z,77.98
2022-11-20T14:38:56.106Z,78.91
2022-11-20T14:41:26.116Z,78.53
2022-11-20T14:43:58.795Z,79.24
2022-11-20T14:46:28.234Z,80.16
2022-11-20T14:48:58.097Z,79.29
2022-11-20T14:51:32.751Z,79.74
2022-11-20T14:54:13.500Z,79.62
2022-11-20T14:56:41.869Z,80.08
2022-11-20T14:59:11.084Z,80.09
2022-11-20T15:01:39.419Z,80.75
2022-11-20T15:04:11.196Z,79.84
2022-11-20T15:06:52.055Z,79.41
2022-11-20T15:09:20.117Z,79.87
2022-11-20T15:11:57.793Z,80.60
2022-11-20T15:14:27.217Z,80.40
2022-11-20T15:16:55.877Z,81.35
2022-11-20T15:19:26.008Z,80.43
2022-11-20T15:21:55.666Z,81.15
2022-11-20T15:24:23.795Z,81.83
2022-11-20T15:26:51.917Z,81.11
2022-11-20T15:29:22.081Z,80.99
2022-11-20T15:31:51.921Z,81.10
2022-11-20T15:34:20.235Z,81.93
2022-11-20T15:36:48.804Z,81.23
2022-11-20T15:39:18.900Z,82.12
2022-11-20T15:41:46.886Z,82.44
2022-11-20T15:44:14.977Z,82.33
2022-11-20T15:46:47.419Z,82.66
2022-11-20T15:49:16.822Z,83.46
2022-11-20T15:51:47.331Z,84.28
2022-11-20T15:54:21.307Z,84.24
2022-11-20T15:56:49.845Z,83.90
2022-11-20T15:59:17.889Z,84.64
2022-11-20T16:01:46.207Z,84.67
2022-11-20T16:04:15.370Z,84.75
2022-11-20T16:06:43.808Z,85.62
2022-11-20T16:09:11.736Z,85.20
2022-11-20T16:11:41.199Z,85.28
2022-11-20T16:14:30.485Z,84.60
2022-11-20T16:16:58.485Z,85.08
2022-11-20T16:19:26.456Z,85.96
2022-11-20T16:21:59.625Z,86.43
2022-11-20T16:24:30.361Z,86.14
2022-11-20T16:26:59.778Z,85.59
2022-11-20T16:29:27.731Z,86.25
2022-11-20T16:31:55.707Z,86.48
2022-11-20T16:34:23.888Z,86.28
2022-11-20T16:36:51.914Z,86.21
2022-11-20T16:39:23.617Z,86.02
2022-11-20T16:41:51.977Z,85.75
2022-11-20T16:44:21.861Z,86.10
2022-11-20T16:46:50.069Z,85.70
2022-11-20T16:49:17.947Z,85.94
2022-11-20T16:51:45.882Z,85.60
2022-11-20T16:54:20.549Z,85.48
2022-11-20T16:56:51.096Z,85.50
2022-11-20T16:59:19.138Z,85.36
2022-11-20T17:01:48.874Z,85.73
2022-11-20T17:04:16.914Z,85.18
2022-11-20T17:06:45.506Z,85.47
2022-11-20T17:09:13.931Z,85.57
2022-11-20T17:11:42.112Z,85.26
2022-11-20T17:14:12.550Z,84.88
2022-11-20T17:16:40.487Z,85.28
2022-11-20T17:19:10.138Z,84.26
2022-11-20T17:21:39.655Z,84.66
2022-11-20T17:24:09.879Z,84.83
2022-11-20T17:26:39.080Z,84.84
2022-11-20T17:29:10.073Z,84.61
2022-11-20T17:31:39.360Z,83.74
2022-11-20T17:34:07.458Z,83.40
2022-11-20T17:36:40.714Z,84.34
2022-11-20T17:39:12.060Z,81.49
2022-11-20T17:41:40.041Z,82.08
2022-11-20T17:44:08.165Z,81.59
2022-11-20T17:46:36.152Z,81.87
2022-11-20T17:49:04.916Z,82.22
2022-11-20T17:51:34.997Z,81.84
2022-11-20T17:54:08.385Z,80.66
2022-11-20T17:56:54.616Z,81.21
2022-11-20T17:59:22.986Z,80.46
2022-11-20T18:01:51.089Z,80.81
2022-11-20T18:04:19.175Z,80.19
2022-11-20T18:06:47.121Z,79.63
2022-11-20T18:09:16.405Z,80.42
2022-11-20T18:11:45.447Z,80.85
2022-11-20T18:14:32.111Z,80.30
2022-11-20T18:17:02.305Z,80.45
2022-11-20T18:19:32.916Z,80.20
2022-11-20T18:22:01.786Z,80.27
2022-11-20T18:24:31.456Z,79.89
2022-11-20T18:27:00.857Z,80.41
2022-11-20T18:29:31.150Z,79.63
2022-11-20T18:31:59.979Z,80.10
2022-11-20T18:34:28.234Z,80.68
2022-11-20T18:36:56.239Z,80.18
2022-11-20T18:39:24.292Z,80.77
2022-11-20T18:42:10.933Z,81.01
2022-11-20T18:44:54.840Z,82.01
2022-11-20T18:47:25.046Z,81.83
2022-11-20T18:49:54.856Z,82.62
2022-11-20T18:52:24.589Z,82.38
2022-11-20T18:54:53.549Z,82.95
2022-11-20T18:57:24.894Z,83.12
2022-11-20T18:59:53.691Z,83.28
2022-11-20T19:02:22.949Z,81.63
2022-11-20T19:04:50.869Z,82.01
2022-11-20T19:07:19.091Z,82.34
2022-11-20T19:09:50.701Z,82.60
2022-11-20T19:12:18.719Z,82.66
2022-11-20T19:14:49.700Z,83.10
2022-11-20T19:17:18.157Z,82.95
2022-11-20T19:19:46.645Z,81.83
2022-11-20T19:22:14.691Z,80.99
2022-11-20T19:24:42.704Z,80.86
2022-11-20T19:27:10.693Z,80.02
2022-11-20T19:29:38.698Z,79.65
2022-11-20T19:32:08.178Z,80.54
2022-11-20T19:34:36.164Z,80.73
2022-11-20T19:37:05.169Z,81.10
2022-11-20T19:39:33.160Z,81.56
2022-11-20T19:42:01.084Z,81.02
2022-11-20T19:44:29.207Z,80.84
2022-11-20T19:46:58.625Z,80.96
2022-11-20T19:49:27.914Z,81.04
2022-11-20T19:51:56.422Z,81.14
2022-11-20T19:54:24.416Z,82.19
2022-11-20T19:56:52.399Z,82.14
2022-11-20T19:59:20.463Z,81.79
2022-11-20T20:01:48.698Z,82.20
2022-11-20T20:04:16.652Z,81.97
2022-11-20T20:06:46.143Z,82.57
2022-11-20T20:09:14.818Z,82.78
2022-11-20T20:11:46.829Z,81.94
2022-11-20T20:14:18.251Z,82.37
2022-11-20T20:16:46.354Z,82.11
2022-11-20T20:19:16.298Z,83.02
2022-11-20T20:21:45.631Z,82.04
2022-11-20T20:24:13.790Z,82.35
2022-11-20T20:26:41.957Z,82.83
2022-11-20T20:29:10.150Z,82.67
2022-11-20T20:31:38.148Z,82.67
2022-11-20T20:34:06.704Z,82.84
2022-11-20T20:36:34.787Z,83.26
2022-11-20T20:39:04.697Z,83.11
2022-11-20T20:41:32.784Z,82.34
2022-11-20T20:44:18.436Z,83.10
2022-11-20T20:46:46.523Z,82.94
2022-11-20T20:49:14.614Z,83.36
2022-11-20T20:51:42.593Z,82.99
2022-11-20T20:54:12.003Z,83.24
2022-11-20T20:56:40.058Z,83.26
2022-11-20T20:59:08.012Z,83.38
2022-11-20T21:01:36.019Z,83.85
2022-11-20T21:04:04.119Z,83.95
2022-11-20T21:06:32.157Z,84.00
2022-11-20T21:09:00.102Z,84.54
2022-11-20T21:11:29.466Z,84.31
2022-11-20T21:13:57.619Z,85.10
2022-11-20T21:16:26.018Z,84.99
2022-11-20T21:18:53.976Z,85.29
2022-11-20T21:21:39.146Z,85.23
2022-11-20T21:24:08.186Z,85.42
2022-11-20T21:26:37.501Z,85.48
2022-11-20T21:29:05.579Z,86.01
2022-11-20T21:31:33.545Z,86.70
2022-11-20T21:34:02.415Z,86.45
2022-11-20T21:36:31.885Z,86.52
2022-11-20T21:39:00.448Z,86.92
2022-11-20T21:41:30.247Z,87.17
2022-11-20T21:46:48.480Z,87.42
2022-11-20T21:49:18.182Z,88.01
2022-11-20T21:51:46.089Z,88.02
2022-11-20T21:54:14.146Z,87.94
2022-11-20T21:56:42.139Z,88.52
2022-11-20T21:59:14.457Z,88.26
2022-11-20T22:01:42.843Z,89.03
2022-11-20T22:04:14.771Z,88.81
2022-11-20T22:06:42.851Z,89.03
2022-11-20T22:09:11.422Z,89.21
2022-11-20T22:11:39.505Z,89.41
2022-11-20T22:14:23.813Z,90.14
2022-11-20T22:16:54.699Z,89.74
2022-11-20T22:19:24.187Z,90.18
2022-11-20T22:21:52.802Z,89.93
2022-11-20T22:24:23.210Z,91.09
2022-11-20T22:26:51.705Z,91.40
2022-11-20T22:29:21.881Z,91.20
2022-11-20T22:31:54.167Z,91.64
2022-11-20T22:34:22.561Z,92.03
2022-11-20T22:36:50.856Z,91.91
2022-11-20T22:39:21.914Z,92.25
2022-11-20T22:41:50.028Z,91.57
2022-11-20T22:44:18.145Z,91.51
2022-11-20T22:46:46.134Z,91.79
2022-11-20T22:49:15.563Z,91.88
2022-11-20T22:51:43.600Z,91.93
2022-11-20T22:54:12.951Z,91.07
2022-11-20T22:56:41.440Z,90.90
2022-11-20T22:59:09.843Z,91.33
2022-11-20T23:01:38.678Z,90.37
2022-11-20T23:04:08.376Z,89.61
2022-11-20T23:06:38.026Z,90.16
2022-11-20T23:09:07.215Z,89.55
2022-11-20T23:11:36.079Z,89.35
2022-11-20T23:14:06.140Z,89.70
2022-11-20T23:16:34.960Z,89.74
2022-11-20T23:19:05.522Z,89.72
2022-11-20T23:21:34.767Z,89.19
2022-11-20T23:24:04.699Z,89.36
2022-11-20T23:26:34.569Z,89.65
2022-11-20T23:29:02.895Z,89.46
2022-11-20T23:31:33.153Z,90.32
2022-11-20T23:34:01.747Z,90.84
2022-11-20T23:36:29.743Z,90.28
2022-11-20T23:38:57.818Z,90.99
2022-11-20T23:41:27.229Z,90.83
2022-11-20T23:43:55.698Z,91.34
2022-11-20T23:46:23.680Z,91.49
2022-11-20T23:48:51.750Z,92.08
2022-11-20T23:51:19.927Z,91.86
2022-11-20T23:53:47.852Z,92.63
2022-11-20T23:56:15.918Z,91.72
2022-11-20T23:58:45.372Z,91.51
